Fruitland Park, Florida
Current Conditions -  °F | °C
As of 9:03 AM on Wednesday 26 Nov 2014 (Local Time) from KLEE Reporting Station
Light Rain Light Rain  
Wind Chill: 52°   Ceiling: 900
Heat Index: 52°   Visibility: 10mi
Dew Point: 51°   Wind: 10mph
Humidity: 97%   Direction: 310°NW
Pressure: 30.12"   Gusts: NA
Location:  28.86°N, 81.91°W
Report Text: KLEE 261403Z 31009KT 10SM -RA BKN009 BKN030 OVC110 11/11 A3012 RMK AO2 CIG 006V012 P0000 T01110106
Loading
Personal Weather Stations






























Interactive Weather Map New forecast layout! Learn more

10-Day Weather Forecast

Advertisements
Track Severe Weather on mobile